Time;durP1;ratioP1;P1;durP2;ratioP2;P2;SDS_P1;SDS_P2;PMS_P1;PMS_P2;Temp;Humidity;BMP_temperature;BMP_pressure;BME280_temperature;BME280_humidity;BME280_pressure;Samples;Min_cycle;Max_cycle;Signal;HPM_P1;HPM_P2
2023/11/12 00:01:22;;;;;;;1008.93;908.40;;;3.80;99.90;;;;;;6154778;23;20424;-71
2023/11/12 00:03:50;;;;;;;1007.70;907.77;;;3.80;99.90;;;;;;6154812;23;20472;-71
2023/11/12 00:06:16;;;;;;;1017.40;916.20;;;3.80;99.90;;;;;;6154694;23;20493;-71
2023/11/12 00:08:43;;;;;;;1024.03;921.93;;;3.80;99.90;;;;;;6154880;23;20494;-71
2023/11/12 00:11:10;;;;;;;1020.70;919.00;;;3.80;99.90;;;;;;6155164;23;20411;-71
2023/11/12 00:13:37;;;;;;;1018.93;916.77;;;3.80;99.90;;;;;;6154557;23;20887;-71
2023/11/12 00:16:05;;;;;;;1008.60;907.67;;;3.70;99.90;;;;;;6154686;23;20422;-71
2023/11/12 00:18:35;;;;;;;1010.27;909.20;;;3.70;99.90;;;;;;6154300;23;20894;-71
2023/11/12 00:21:02;;;;;;;1014.90;913.80;;;3.70;99.90;;;;;;6155087;23;20399;-71
2023/11/12 00:23:29;;;;;;;1020.00;919.57;;;3.60;99.90;;;;;;6154460;23;20494;-71
2023/11/12 00:25:56;;;;;;;1022.60;922.90;;;3.40;99.90;;;;;;6154641;23;20889;-71
2023/11/12 00:28:24;;;;;;;1032.63;932.20;;;3.20;99.90;;;;;;6154632;23;20828;-71
2023/11/12 00:30:51;;;;;;;1028.97;925.80;;;3.10;99.90;;;;;;6154961;23;20466;-71
2023/11/12 00:33:19;;;;;;;1036.03;933.07;;;3.10;99.90;;;;;;6154610;23;20490;-71
2023/11/12 00:35:47;;;;;;;1020.67;918.17;;;3.30;99.90;;;;;;6154529;23;20411;-71
2023/11/12 00:38:14;;;;;;;1030.10;927.47;;;3.20;99.90;;;;;;6154854;23;20780;-71
2023/11/12 00:40:41;;;;;;;1031.57;930.43;;;3.20;99.90;;;;;;6154899;23;20442;-71
2023/11/12 00:43:08;;;;;;;1031.87;931.07;;;3.00;99.90;;;;;;6154565;23;20883;-71
2023/11/12 00:45:35;;;;;;;1025.60;924.10;;;2.90;99.90;;;;;;6154621;23;20531;-71
2023/11/12 00:48:02;;;;;;;1038.87;935.33;;;2.80;99.90;;;;;;6154681;23;20488;-71
2023/11/12 00:50:28;;;;;;;1030.23;925.97;;;2.80;99.90;;;;;;6154891;23;20750;-71
2023/11/12 00:52:57;;;;;;;1038.60;934.27;;;2.80;99.90;;;;;;6154532;23;20493;-71
2023/11/12 00:55:24;;;;;;;1057.90;951.63;;;2.70;99.90;;;;;;6154311;23;20910;-71
2023/11/12 00:57:50;;;;;;;1068.03;960.03;;;2.50;99.90;;;;;;6154846;23;20723;-71
2023/11/12 01:00:18;;;;;;;1070.17;959.97;;;2.40;99.90;;;;;;6154702;23;20489;-71
2023/11/12 01:02:45;;;;;;;1059.47;948.23;;;2.40;99.90;;;;;;6155018;23;20915;-71
2023/11/12 01:05:13;;;;;;;1064.43;951.20;;;2.30;99.90;;;;;;6156506;23;20807;-71
2023/11/12 01:07:40;;;;;;;1061.27;945.50;;;2.30;99.90;;;;;;6156620;23;20411;-71
2023/11/12 01:10:09;;;;;;;1062.80;947.47;;;2.30;99.90;;;;;;6156539;23;20409;-71
2023/11/12 01:12:36;;;;;;;1060.10;944.80;;;2.20;99.90;;;;;;6156549;23;20468;-71
2023/11/12 01:15:04;;;;;;;1061.63;947.37;;;2.10;99.90;;;;;;6156694;23;20405;-71
2023/11/12 01:17:31;;;;;;;1064.07;949.70;;;2.20;99.90;;;;;;6156203;23;20911;-71
2023/11/12 01:20:00;;;;;;;1046.27;932.77;;;2.50;99.90;;;;;;6156306;23;20409;-71
2023/11/12 01:22:27;;;;;;;1045.90;933.13;;;2.70;99.90;;;;;;6156187;23;20410;-71
2023/11/12 01:24:54;;;;;;;1041.17;927.50;;;2.80;99.90;;;;;;6156363;23;20433;-71
2023/11/12 01:27:22;;;;;;;1045.40;931.53;;;2.70;99.90;;;;;;6155972;23;20442;-71
2023/11/12 01:29:49;;;;;;;1048.03;932.93;;;2.60;99.90;;;;;;6156189;23;20441;-71
2023/11/12 01:32:16;;;;;;;1055.43;939.67;;;2.50;99.90;;;;;;6155968;23;20414;-71
2023/11/12 01:34:43;;;;;;;1055.97;939.03;;;2.50;99.90;;;;;;6156218;23;20871;-71
2023/11/12 01:37:10;;;;;;;1053.63;928.90;;;2.40;99.90;;;;;;6156364;23;20493;-71
2023/11/12 01:39:37;;;;;;;1050.13;921.47;;;2.40;99.90;;;;;;6166224;23;20796;-71
2023/11/12 01:42:10;;;;;;;1062.33;932.30;;;2.30;99.90;;;;;;6156415;23;20498;-71
2023/11/12 01:44:38;;;;;;;1053.07;922.53;;;2.20;99.90;;;;;;6155981;23;20512;-71
2023/11/12 01:47:07;;;;;;;1057.67;936.87;;;2.20;99.90;;;;;;6156433;23;20520;-71
2023/11/12 01:49:36;;;;;;;1066.20;929.77;;;2.20;99.90;;;;;;6156062;23;20738;-71
2023/11/12 01:52:04;;;;;;;1067.90;934.60;;;2.20;99.90;;;;;;6146666;23;20445;-74
2023/11/12 01:54:34;;;;;;;1073.90;932.10;;;2.20;99.90;;;;;;6155071;23;20788;-74
2023/11/12 01:57:02;;;;;;;1076.33;934.70;;;2.10;99.90;;;;;;6155235;23;20417;-74
2023/11/12 01:59:30;;;;;;;1076.50;942.63;;;2.10;99.90;;;;;;6154520;23;20450;-74
2023/11/12 02:01:59;;;;;;;1080.00;938.20;;;2.00;99.90;;;;;;6155154;23;20411;-73
2023/11/12 02:04:27;;;;;;;1073.70;936.13;;;2.00;99.90;;;;;;6154881;23;20437;-74
2023/11/12 02:06:54;;;;;;;1083.20;933.67;;;1.90;99.90;;;;;;6155154;23;20410;-74
2023/11/12 02:09:22;;;;;;;1103.67;941.90;;;1.80;99.90;;;;;;6154739;23;20410;-74
2023/11/12 02:11:50;;;;;;;1105.27;936.20;;;1.80;99.90;;;;;;6154733;23;20410;-74
2023/11/12 02:14:19;;;;;;;1110.33;939.33;;;1.90;99.90;;;;;;6154564;23;20492;-74
2023/11/12 02:16:47;;;;;;;1099.13;933.73;;;1.90;99.90;;;;;;6155084;23;20414;-74
2023/11/12 02:19:25;;;;;;;1103.60;932.10;;;1.80;99.90;;;;;;6154149;23;20949;-74
2023/11/12 02:21:52;;;;;;;1099.30;927.20;;;1.70;99.90;;;;;;6155140;23;20480;-74
2023/11/12 02:24:21;;;;;;;1103.90;933.80;;;1.70;99.90;;;;;;6154572;23;20410;-74
2023/11/12 02:26:48;;;;;;;1095.60;927.40;;;1.70;99.90;;;;;;6154816;23;20410;-74
2023/11/12 02:29:16;;;;;;;1094.40;933.60;;;1.60;99.90;;;;;;6154199;23;20410;-74
2023/11/12 02:31:43;;;;;;;1080.17;929.27;;;1.60;99.90;;;;;;6154572;23;20416;-74
2023/11/12 02:34:10;;;;;;;1087.03;932.70;;;1.50;99.90;;;;;;6154690;23;20774;-74
2023/11/12 02:36:38;;;;;;;1086.40;893.80;;;1.50;99.90;;;;;;6154880;23;20410;-74
2023/11/12 02:39:08;;;;;;;1084.90;902.77;;;1.50;99.90;;;;;;6154006;23;20410;-74
2023/11/12 02:41:37;;;;;;;1078.37;906.77;;;1.50;99.90;;;;;;6154855;23;20870;-74
2023/11/12 02:44:08;;;;;;;1087.80;926.00;;;1.40;99.90;;;;;;6154610;23;20913;-74
2023/11/12 02:46:35;;;;;;;1084.60;893.03;;;1.50;99.90;;;;;;6154794;23;20460;-74
2023/11/12 02:49:30;;;;;;;1087.63;917.90;;;1.60;99.90;;;;;;6154321;23;20417;-74
2023/11/12 02:51:57;;;;;;;1066.93;873.73;;;1.70;99.90;;;;;;6154298;23;20481;-74
2023/11/12 02:54:25;;;;;;;1068.90;879.07;;;1.90;99.90;;;;;;6154468;23;20426;-74
2023/11/12 02:56:53;;;;;;;1072.20;879.57;;;2.10;99.90;;;;;;6154380;23;20469;-74
2023/11/12 02:59:20;;;;;;;1068.47;875.20;;;2.20;99.90;;;;;;6153893;23;20875;-74
2023/11/12 03:01:47;;;;;;;1068.87;890.60;;;2.30;99.90;;;;;;6154723;23;20411;-74
2023/11/12 03:04:13;;;;;;;1079.00;906.10;;;2.40;99.90;;;;;;6153897;23;20410;-74
2023/11/12 03:06:40;;;;;;;1076.87;901.70;;;2.50;99.90;;;;;;6154529;23;20446;-74
2023/11/12 03:09:09;;;;;;;1090.73;920.07;;;2.60;99.90;;;;;;6154046;23;20448;-74
2023/11/12 03:11:37;;;;;;;1084.23;913.20;;;2.80;99.90;;;;;;6154683;23;20441;-74
2023/11/12 03:14:06;;;;;;;1076.83;911.90;;;2.90;99.90;;;;;;6154066;23;20415;-74
2023/11/12 03:16:33;;;;;;;1068.77;909.53;;;3.00;99.90;;;;;;6154549;23;20410;-74
2023/11/12 03:19:00;;;;;;;1068.37;908.37;;;3.00;99.90;;;;;;6153869;23;20411;-74
2023/11/12 03:21:27;;;;;;;1080.90;913.17;;;3.00;99.90;;;;;;6154528;23;20411;-75
2023/11/12 03:23:55;;;;;;;1074.23;912.00;;;3.10;99.90;;;;;;6153815;23;20411;-75
2023/11/12 03:26:22;;;;;;;1065.90;910.80;;;3.10;99.90;;;;;;6154041;23;20470;-74
2023/11/12 03:28:49;;;;;;;1061.00;903.63;;;3.20;99.90;;;;;;6153953;23;20446;-74
2023/11/12 03:31:17;;;;;;;1061.27;906.47;;;3.10;99.90;;;;;;6153924;23;20415;-74
2023/11/12 03:33:44;;;;;;;1062.40;903.13;;;3.10;99.90;;;;;;6153792;23;20453;-75
2023/11/12 03:36:15;;;;;;;1061.20;903.10;;;3.00;99.90;;;;;;6153959;23;20460;-75
2023/11/12 03:38:42;;;;;;;1068.93;912.23;;;3.00;99.90;;;;;;6153998;23;20395;-75
2023/11/12 03:41:12;;;;;;;1067.47;908.93;;;3.00;99.90;;;;;;6154247;23;20421;-74
2023/11/12 03:43:39;;;;;;;1067.27;914.60;;;3.00;99.90;;;;;;6153756;23;20403;-74
2023/11/12 03:46:07;;;;;;;1067.03;913.37;;;3.00;99.90;;;;;;6153727;23;20526;-75
2023/11/12 03:48:36;;;;;;;1066.53;902.07;;;2.90;99.90;;;;;;6153791;23;20410;-75
2023/11/12 03:51:03;;;;;;;1067.37;904.50;;;3.00;99.90;;;;;;6153836;23;20411;-74
2023/11/12 03:53:29;;;;;;;1059.93;897.37;;;3.00;99.90;;;;;;6153636;23;20446;-75
2023/11/12 03:55:56;;;;;;;1055.57;891.57;;;3.10;99.90;;;;;;6154293;23;20407;-74
2023/11/12 03:58:23;;;;;;;1060.60;892.03;;;3.00;99.90;;;;;;6153623;23;20771;-74
2023/11/12 04:00:51;;;;;;;1054.10;868.33;;;3.10;99.90;;;;;;6153878;23;20414;-74
2023/11/12 04:03:18;;;;;;;1053.40;872.30;;;3.10;99.90;;;;;;6154060;23;20468;-75
2023/11/12 04:05:47;;;;;;;1057.07;889.27;;;3.10;99.90;;;;;;6153917;23;20469;-74
2023/11/12 04:08:14;;;;;;;1059.17;891.53;;;3.00;99.90;;;;;;6153701;23;20791;-75
2023/11/12 04:10:41;;;;;;;1066.87;905.27;;;3.00;99.90;;;;;;6154130;23;20417;-75
2023/11/12 04:13:08;;;;;;;1068.13;913.00;;;2.90;99.90;;;;;;6153892;23;20417;-75
2023/11/12 04:15:35;;;;;;;1067.43;910.83;;;2.80;99.90;;;;;;6153519;23;20945;-75
2023/11/12 04:18:02;;;;;;;1064.17;904.23;;;2.80;99.90;;;;;;6153661;23;20447;-75
2023/11/12 04:20:30;;;;;;;1063.77;912.07;;;2.70;99.90;;;;;;6154022;23;20421;-75
2023/11/12 04:22:58;;;;;;;1055.00;899.47;;;2.60;99.90;;;;;;6154008;23;20801;-75
2023/11/12 04:25:25;;;;;;;1065.40;901.83;;;2.50;99.90;;;;;;6153959;23;20520;-75
2023/11/12 04:27:52;;;;;;;1060.77;903.33;;;2.40;99.90;;;;;;6153573;23;20482;-74
2023/11/12 04:30:19;;;;;;;1057.97;892.83;;;2.30;99.90;;;;;;6153591;23;20410;-75
2023/11/12 04:32:46;;;;;;;1059.23;914.50;;;2.30;99.90;;;;;;6154098;23;20441;-75
2023/11/12 04:35:13;;;;;;;1062.07;907.67;;;2.30;99.90;;;;;;6153200;23;20449;-75
2023/11/12 04:37:40;;;;;;;1047.90;895.10;;;2.20;99.90;;;;;;6155009;23;20417;-75
2023/11/12 04:40:11;;;;;;;1059.47;915.13;;;2.20;99.90;;;;;;6155849;23;20410;-75
2023/11/12 04:42:39;;;;;;;1066.93;906.73;;;2.10;99.90;;;;;;6155533;23;20465;-75
2023/11/12 04:45:06;;;;;;;1070.03;904.67;;;2.00;99.90;;;;;;6155692;23;20410;-75
2023/11/12 04:47:33;;;;;;;1067.83;912.23;;;2.00;99.90;;;;;;6155471;23;20416;-74
2023/11/12 04:50:00;;;;;;;1072.37;907.93;;;1.90;99.90;;;;;;6155740;23;20501;-75
2023/11/12 04:52:27;;;;;;;1086.73;896.17;;;1.90;99.90;;;;;;6155549;23;20472;-75
2023/11/12 04:54:54;;;;;;;1092.20;895.37;;;1.80;99.90;;;;;;6155264;23;20418;-75
2023/11/12 04:57:23;;;;;;;1086.87;878.67;;;1.80;99.90;;;;;;6155917;23;20410;-75
2023/11/12 04:59:50;;;;;;;1080.73;880.60;;;1.70;99.90;;;;;;6155447;23;20964;-75
2023/11/12 05:02:18;;;;;;;1081.40;884.57;;;1.70;99.90;;;;;;6155745;23;20410;-75
2023/11/12 05:04:45;;;;;;;1095.43;891.10;;;1.70;99.90;;;;;;6155455;23;20441;-75
2023/11/12 05:07:12;;;;;;;1088.73;898.70;;;1.70;99.90;;;;;;6155562;23;20829;-75
2023/11/12 05:09:39;;;;;;;1093.60;924.90;;;1.70;99.90;;;;;;6155359;23;20781;-75
2023/11/12 05:12:08;;;;;;;1094.67;921.70;;;1.70;99.90;;;;;;6155651;23;20464;-75
2023/11/12 05:14:36;;;;;;;1095.47;923.77;;;1.70;99.90;;;;;;6155489;23;20460;-75
2023/11/12 05:17:05;;;;;;;1100.17;916.63;;;1.70;99.90;;;;;;6155144;23;20413;-75
2023/11/12 05:19:32;;;;;;;1081.63;914.20;;;1.70;99.90;;;;;;6155095;23;20414;-76
2023/11/12 05:21:59;;;;;;;1083.03;918.03;;;1.60;99.90;;;;;;6155229;23;20497;-76
2023/11/12 05:24:26;;;;;;;1078.40;915.83;;;1.50;99.90;;;;;;6155045;23;20488;-76
2023/11/12 05:26:53;;;;;;;1097.90;918.20;;;1.40;99.90;;;;;;6155596;23;20434;-76
2023/11/12 05:29:20;;;;;;;1108.30;928.70;;;1.30;99.90;;;;;;6155056;23;20409;-76
2023/11/12 05:31:49;;;;;;;1103.20;923.13;;;1.30;99.90;;;;;;6155575;23;20444;-76
2023/11/12 05:34:15;;;;;;;1093.53;915.43;;;1.30;99.90;;;;;;6154740;23;20890;-77
2023/11/12 05:36:42;;;;;;;1082.17;898.13;;;1.30;99.90;;;;;;6155471;23;20406;-77
2023/11/12 05:39:12;;;;;;;1082.87;902.00;;;1.30;99.90;;;;;;6155124;23;20464;-77
2023/11/12 05:41:39;;;;;;;1090.97;900.70;;;1.30;99.90;;;;;;6155074;23;20410;-76
2023/11/12 05:44:06;;;;;;;1093.63;898.27;;;1.30;99.90;;;;;;6155259;23;20409;-76
2023/11/12 05:46:33;;;;;;;1085.50;910.83;;;1.40;99.90;;;;;;6155316;23;20434;-76
2023/11/12 05:49:01;;;;;;;1083.87;909.20;;;1.20;99.90;;;;;;6153884;23;20410;-76
2023/11/12 05:51:28;;;;;;;1081.80;908.23;;;1.20;99.90;;;;;;6155386;23;20516;-75
2023/11/12 05:53:55;;;;;;;1089.87;910.53;;;1.10;99.90;;;;;;6154790;23;20425;-75
2023/11/12 05:56:22;;;;;;;1092.97;920.47;;;1.10;99.90;;;;;;6154927;23;20932;-75
2023/11/12 05:58:49;;;;;;;1092.63;918.20;;;1.00;99.90;;;;;;6154851;23;20414;-75
2023/11/12 06:01:17;;;;;;;1090.50;915.27;;;1.00;99.90;;;;;;6154752;23;20489;-75
2023/11/12 06:03:44;;;;;;;1089.90;912.97;;;1.00;99.90;;;;;;6154327;23;20419;-75
2023/11/12 06:06:12;;;;;;;1078.23;902.23;;;0.90;99.90;;;;;;6154761;23;20490;-74
2023/11/12 06:08:39;;;;;;;1073.23;903.40;;;0.90;99.90;;;;;;6154747;23;20799;-74
2023/11/12 06:11:06;;;;;;;1069.10;902.00;;;0.90;99.90;;;;;;6155127;23;20438;-74
2023/11/12 06:13:33;;;;;;;1081.73;906.90;;;1.00;99.90;;;;;;6154540;23;20461;-74
2023/11/12 06:16:00;;;;;;;1073.80;918.23;;;1.10;99.90;;;;;;6155015;23;20434;-74
2023/11/12 06:18:27;;;;;;;1069.77;920.53;;;1.10;99.90;;;;;;6154108;23;21055;-74
2023/11/12 06:20:54;;;;;;;1070.83;912.00;;;1.00;99.90;;;;;;6154675;23;20417;-74
2023/11/12 06:23:22;;;;;;;1084.30;917.07;;;1.10;99.90;;;;;;6154993;23;20441;-74
2023/11/12 06:25:49;;;;;;;1078.87;922.03;;;1.10;99.90;;;;;;6154252;23;20433;-74
2023/11/12 06:28:17;;;;;;;1091.40;926.20;;;1.00;99.90;;;;;;6154482;23;20422;-74
2023/11/12 06:30:44;;;;;;;1100.63;927.97;;;1.00;99.90;;;;;;6154436;23;20417;-74
2023/11/12 06:33:11;;;;;;;1102.60;930.43;;;0.90;99.90;;;;;;6154384;23;20446;-74
2023/11/12 06:35:38;;;;;;;1100.03;930.97;;;0.90;99.90;;;;;;6154351;23;20441;-74
2023/11/12 06:38:05;;;;;;;1083.00;927.90;;;0.80;99.90;;;;;;6153474;23;20438;-74
2023/11/12 06:40:33;;;;;;;1090.37;935.53;;;0.80;99.90;;;;;;6154810;23;20409;-73
2023/11/12 06:43:00;;;;;;;1088.13;934.03;;;0.80;99.90;;;;;;6154255;23;20473;-73
2023/11/12 06:45:28;;;;;;;1093.67;927.50;;;0.90;99.90;;;;;;6154519;23;20409;-73
2023/11/12 06:47:54;;;;;;;1079.30;927.07;;;0.90;99.90;;;;;;6153859;23;20917;-73
2023/11/12 06:50:21;;;;;;;1078.33;919.93;;;1.00;99.90;;;;;;6154423;23;20445;-73
2023/11/12 06:52:48;;;;;;;1077.23;917.20;;;1.10;99.90;;;;;;6154368;23;20505;-73
2023/11/12 06:55:15;;;;;;;1073.30;915.10;;;1.20;99.90;;;;;;6154070;23;20410;-73
2023/11/12 06:57:43;;;;;;;1070.73;918.70;;;1.20;99.90;;;;;;6153677;23;20472;-73
2023/11/12 07:00:12;;;;;;;1084.87;921.93;;;1.30;99.90;;;;;;6154575;23;20413;-72
2023/11/12 07:02:38;;;;;;;1080.00;914.50;;;1.20;99.90;;;;;;6154204;23;20972;-72
2023/11/12 07:05:06;;;;;;;1075.40;924.17;;;1.20;99.90;;;;;;6154408;23;20946;-73
2023/11/12 07:07:33;;;;;;;1074.10;913.10;;;1.10;99.90;;;;;;6154111;23;20406;-73
2023/11/12 07:10:00;;;;;;;1088.00;917.30;;;1.10;99.90;;;;;;6154410;23;20406;-73
2023/11/12 07:12:27;;;;;;;1069.00;917.20;;;1.20;99.90;;;;;;6154577;23;20410;-73
2023/11/12 07:14:55;;;;;;;1071.27;915.30;;;1.20;99.90;;;;;;6154686;23;20417;-73
2023/11/12 07:17:22;;;;;;;1081.27;918.10;;;1.20;99.90;;;;;;6153601;23;20433;-73
2023/11/12 07:19:49;;;;;;;1056.47;910.90;;;1.30;99.90;;;;;;6154250;23;20895;-73
2023/11/12 07:22:16;;;;;;;1073.77;910.63;;;1.30;99.90;;;;;;6154455;23;20478;-73
2023/11/12 07:24:43;;;;;;;1080.83;916.80;;;1.30;99.90;;;;;;6153733;23;20410;-73
2023/11/12 07:27:10;;;;;;;1079.00;909.57;;;1.30;99.90;;;;;;6153841;23;20437;-72
2023/11/12 07:29:37;;;;;;;1078.67;921.30;;;1.30;99.90;;;;;;6153758;23;20751;-73
2023/11/12 07:32:06;;;;;;;1083.40;918.70;;;1.30;99.90;;;;;;6153805;23;20437;-73
2023/11/12 07:34:33;;;;;;;1094.70;919.40;;;1.40;99.90;;;;;;6153817;23;20675;-73
2023/11/12 07:36:59;;;;;;;1082.60;911.77;;;1.50;99.90;;;;;;6154288;23;20528;-73
2023/11/12 07:39:26;;;;;;;1070.97;915.23;;;1.60;99.90;;;;;;6153363;23;20418;-73
2023/11/12 07:41:53;;;;;;;1067.40;913.53;;;1.60;99.90;;;;;;6154227;23;20416;-73
2023/11/12 07:44:20;;;;;;;1065.57;910.63;;;1.60;99.90;;;;;;6154083;23;20858;-72
2023/11/12 07:46:47;;;;;;;1064.33;911.67;;;1.60;99.90;;;;;;6153775;23;20890;-72
2023/11/12 07:49:15;;;;;;;1077.77;914.70;;;1.60;99.90;;;;;;6153598;23;20445;-72
2023/11/12 07:51:42;;;;;;;1102.15;918.08;;;1.70;99.90;;;;;;6149672;23;20785;-70
2023/11/12 07:54:14;;;;;;;1093.93;926.35;;;1.70;99.90;;;;;;6152286;23;20792;-70
2023/11/12 07:56:40;;;;;;;1065.50;920.50;;;1.80;99.90;;;;;;6152973;23;20645;-70
2023/11/12 07:59:08;;;;;;;1090.37;918.13;;;1.90;99.90;;;;;;6153461;23;20438;-70
2023/11/12 08:01:35;;;;;;;1092.93;919.03;;;2.20;99.90;;;;;;6153739;23;20417;-70
2023/11/12 08:04:02;;;;;;;1087.73;917.30;;;2.30;99.90;;;;;;6153157;23;20410;-70
2023/11/12 08:06:30;;;;;;;1083.77;907.27;;;2.50;99.90;;;;;;6153687;23;20490;-71
2023/11/12 08:08:58;;;;;;;1083.27;909.50;;;2.70;99.90;;;;;;6153405;23;20802;-71
2023/11/12 08:11:25;;;;;;;1096.50;912.20;;;2.90;99.90;;;;;;6153494;23;20410;-71
2023/11/12 08:13:52;;;;;;;1106.77;910.23;;;3.00;99.90;;;;;;6153504;23;20409;-71
2023/11/12 08:16:20;;;;;;;1109.37;906.27;;;3.20;99.90;;;;;;6153155;23;20438;-71
2023/11/12 08:18:46;;;;;;;1113.00;901.93;;;3.30;99.90;;;;;;6153179;23;20444;-71
2023/11/12 08:21:14;;;;;;;1135.73;921.80;;;3.40;99.90;;;;;;6153851;23;20412;-71
2023/11/12 08:23:42;;;;;;;1107.87;904.10;;;3.50;99.90;;;;;;6153931;23;20413;-71
2023/11/12 08:26:09;;;;;;;1101.90;902.07;;;3.50;99.90;;;;;;6153644;23;20502;-71
2023/11/12 08:28:36;;;;;;;1103.30;893.03;;;3.60;99.90;;;;;;6153334;23;20787;-71
2023/11/12 08:31:03;;;;;;;1113.07;913.93;;;3.80;99.90;;;;;;6153129;23;20908;-72
2023/11/12 08:33:29;;;;;;;1115.77;908.80;;;3.90;99.90;;;;;;6153038;23;20448;-71
2023/11/12 08:35:56;;;;;;;1108.77;903.17;;;3.90;99.90;;;;;;6153581;23;20752;-71
2023/11/12 08:38:23;;;;;;;1088.80;887.87;;;4.00;99.90;;;;;;6152855;23;20949;-72
2023/11/12 08:40:52;;;;;;;1101.07;898.17;;;4.10;99.90;;;;;;6153100;23;20818;-72
2023/11/12 08:43:18;;;;;;;1105.87;905.23;;;4.30;99.90;;;;;;6153128;23;20419;-72
2023/11/12 08:45:45;;;;;;;1099.43;903.50;;;4.40;99.90;;;;;;6153128;23;20451;-72
2023/11/12 08:48:13;;;;;;;1093.13;884.67;;;4.50;99.90;;;;;;6153195;23;20784;-72
2023/11/12 08:50:40;;;;;;;1068.90;885.70;;;4.60;99.90;;;;;;6153150;23;20906;-72
2023/11/12 08:53:07;;;;;;;1053.73;870.60;;;4.70;99.90;;;;;;6153308;23;21084;-72
2023/11/12 08:55:34;;;;;;;1064.60;871.03;;;4.80;99.90;;;;;;6152621;23;20452;-72
2023/11/12 08:58:03;;;;;;;1060.77;881.80;;;5.00;99.90;;;;;;6153201;23;20768;-72
2023/11/12 09:00:30;;;;;;;1061.27;896.63;;;5.10;99.90;;;;;;6152702;23;20428;-73
2023/11/12 09:02:57;;;;;;;1075.43;908.93;;;5.20;99.90;;;;;;6152809;23;20450;-72
2023/11/12 09:05:24;;;;;;;1068.03;901.90;;;5.20;99.90;;;;;;6152723;23;20415;-73
2023/11/12 09:07:53;;;;;;;1059.90;914.97;;;5.30;99.90;;;;;;6152620;23;20496;-72
2023/11/12 09:10:20;;;;;;;1043.50;898.33;;;5.40;99.90;;;;;;6153090;23;20460;-73
2023/11/12 09:12:46;;;;;;;1036.03;901.17;;;5.40;99.90;;;;;;6152520;23;20416;-72
2023/11/12 09:15:15;;;;;;;1012.50;879.67;;;5.40;99.90;;;;;;6152095;23;20410;-73
2023/11/12 09:17:42;;;;;;;1023.43;896.00;;;5.40;99.90;;;;;;6152609;23;20436;-73
2023/11/12 09:20:13;;;;;;;1027.20;901.57;;;5.50;99.90;;;;;;6153171;23;20492;-72
2023/11/12 09:22:41;;;;;;;1030.90;907.07;;;5.50;99.90;;;;;;6153270;23;20793;-73
2023/11/12 09:25:09;;;;;;;1020.33;907.60;;;5.60;99.90;;;;;;6154501;23;20410;-72
2023/11/12 09:27:36;;;;;;;1027.43;914.33;;;5.60;99.90;;;;;;6154474;23;20417;-72
2023/11/12 09:30:03;;;;;;;1035.40;922.03;;;5.70;99.90;;;;;;6153977;23;20488;-72
2023/11/12 09:32:31;;;;;;;1031.27;919.17;;;5.70;99.90;;;;;;6154826;23;20428;-72
2023/11/12 09:34:58;;;;;;;1018.67;909.03;;;5.80;99.90;;;;;;6154437;23;20500;-72
2023/11/12 09:37:25;;;;;;;1031.17;922.33;;;5.80;99.90;;;;;;6153821;23;20433;-72
2023/11/12 09:39:53;;;;;;;1025.30;917.80;;;5.90;99.90;;;;;;6154858;23;20807;-73
2023/11/12 09:42:23;;;;;;;1005.27;899.93;;;6.00;99.90;;;;;;6154565;23;20497;-72
2023/11/12 09:44:54;;;;;;;999.20;894.53;;;6.20;99.90;;;;;;6154457;23;20410;-72
2023/11/12 09:47:31;;;;;;;1006.30;905.33;;;6.50;99.90;;;;;;6154419;23;20482;-73
2023/11/12 09:49:59;;;;;;;1002.70;905.40;;;6.70;99.90;;;;;;6154788;23;20398;-73
2023/11/12 09:52:27;;;;;;;993.83;901.27;;;6.80;99.90;;;;;;6154210;23;20419;-73
2023/11/12 09:54:54;;;;;;;1003.33;911.97;;;6.90;99.90;;;;;;6154617;23;20493;-73
2023/11/12 09:57:21;;;;;;;999.17;912.90;;;7.00;99.90;;;;;;6154001;23;20485;-72
2023/11/12 09:59:48;;;;;;;989.07;910.63;;;7.20;99.90;;;;;;6153443;23;20448;-73
2023/11/12 10:02:16;;;;;;;966.93;895.83;;;7.30;99.90;;;;;;6154545;23;20411;-73
2023/11/12 10:04:43;;;;;;;920.67;858.07;;;7.40;99.90;;;;;;6153577;23;20455;-72
2023/11/12 10:07:12;;;;;;;890.43;833.70;;;7.70;99.90;;;;;;6153277;23;20519;-73
2023/11/12 10:09:40;;;;;;;848.03;797.73;;;7.80;99.90;;;;;;6153893;23;20889;-73
2023/11/12 10:12:07;;;;;;;730.87;693.60;;;7.80;99.90;;;;;;6154666;23;20749;-73
2023/11/12 10:14:35;;;;;;;574.53;548.83;;;7.90;99.90;;;;;;6154368;23;20780;-72
2023/11/12 10:17:06;;;;;;;450.37;431.93;;;8.00;99.90;;;;;;6154296;23;20436;-72
2023/11/12 10:19:34;;;;;;;162.97;156.40;;;8.20;99.90;;;;;;6153289;23;20409;-72
2023/11/12 10:22:03;;;;;;;69.67;66.20;;;8.60;99.90;;;;;;6154123;23;20633;-72
2023/11/12 10:24:41;;;;;;;18.60;17.10;;;9.20;99.90;;;;;;6154093;23;20412;-72
2023/11/12 10:27:11;;;;;;;11.03;8.80;;;9.90;99.90;;;;;;6154170;23;20397;-72
2023/11/12 10:29:38;;;;;;;10.53;9.27;;;10.40;99.90;;;;;;6153817;23;20412;-72
2023/11/12 10:32:06;;;;;;;10.73;7.43;;;11.00;99.90;;;;;;6152799;23;20414;-71
2023/11/12 10:34:34;;;;;;;10.10;6.57;;;11.20;99.90;;;;;;6153648;23;20410;-72
2023/11/12 10:37:06;;;;;;;10.97;7.30;;;11.60;99.90;;;;;;6153817;23;20558;-71
2023/11/12 10:39:40;;;;;;;28.50;25.47;;;11.80;99.90;;;;;;6152870;23;20529;-71
2023/11/12 10:42:20;;;;;;;11.23;6.50;;;12.00;99.90;;;;;;6153990;23;20401;-72
2023/11/12 10:44:48;;;;;;;10.40;7.20;;;11.80;99.90;;;;;;6153452;23;20394;-71
2023/11/12 10:47:18;;;;;;;15.40;6.50;;;11.60;99.90;;;;;;6154280;23;20437;-71
2023/11/12 10:49:47;;;;;;;11.93;6.93;;;11.50;99.90;;;;;;6153706;23;20410;-72
2023/11/12 10:52:15;;;;;;;10.87;7.27;;;11.40;99.90;;;;;;6153838;23;20430;-72
2023/11/12 10:54:45;;;;;;;13.33;6.33;;;11.20;99.90;;;;;;6153950;23;20441;-71
2023/11/12 10:57:13;;;;;;;11.60;7.03;;;11.10;99.90;;;;;;6153008;23;20532;-72
2023/11/12 10:59:42;;;;;;;9.83;7.60;;;10.90;99.90;;;;;;6152938;23;20497;-71
2023/11/12 11:02:16;;;;;;;8.97;6.40;;;10.90;99.90;;;;;;6153147;23;20414;-71
2023/11/12 11:04:46;;;;;;;12.20;6.90;;;10.90;99.90;;;;;;6151044;23;20874;-71
2023/11/12 11:07:13;;;;;;;11.77;7.27;;;11.00;99.90;;;;;;6151889;23;20413;-71
2023/11/12 11:09:40;;;;;;;12.50;7.30;;;10.80;99.90;;;;;;6150988;23;20916;-71
2023/11/12 11:12:10;;;;;;;9.57;6.40;;;10.70;99.90;;;;;;6151612;23;20489;-71
2023/11/12 11:14:37;;;;;;;9.50;6.77;;;10.70;99.90;;;;;;6151783;23;20503;-71
2023/11/12 11:17:05;;;;;;;10.20;6.53;;;10.90;99.90;;;;;;6151433;23;20448;-71
2023/11/12 11:19:54;;;;;;;9.33;6.17;;;11.60;99.90;;;;;;6151893;23;20418;-71
2023/11/12 11:22:26;;;;;;;11.57;5.90;;;12.20;99.90;;;;;;6152063;23;20418;-70
2023/11/12 11:24:53;;;;;;;12.37;6.60;;;13.20;99.90;;;;;;6151637;23;20417;-71
2023/11/12 11:27:24;;;;;;;11.63;5.83;;;13.90;99.90;;;;;;6151903;23;20715;-71
2023/11/12 11:30:08;;;;;;;12.93;6.13;;;14.20;89.10;;;;;;6150409;23;20409;-71
2023/11/12 11:32:36;;;;;;;9.67;5.10;;;14.60;92.90;;;;;;6151607;23;20500;-72
2023/11/12 11:35:06;;;;;;;9.77;5.60;;;15.00;92.70;;;;;;6151614;23;20441;-71
2023/11/12 11:38:11;;;;;;;13.00;6.03;;;15.00;81.50;;;;;;6150541;23;20390;-71
2023/11/12 11:40:39;;;;;;;11.70;5.23;;;14.50;81.10;;;;;;6138370;23;20429;-71
2023/11/12 11:43:32;;;;;;;8.50;4.93;;;13.90;72.60;;;;;;6152765;23;20485;-71
2023/11/12 11:46:12;;;;;;;9.60;4.80;;;13.40;72.90;;;;;;6152752;23;20410;-71
2023/11/12 11:49:12;;;;;;;12.47;5.43;;;13.10;79.70;;;;;;6152898;23;20502;-70
2023/11/12 11:51:46;;;;;;;10.20;5.37;;;12.70;79.40;;;;;;6146139;23;20746;-70
2023/11/12 11:54:15;;;;;;;12.40;5.30;;;12.20;78.90;;;;;;6152693;23;20394;-70
2023/11/12 11:56:42;;;;;;;12.77;5.80;;;12.20;78.90;;;;;;6152843;23;20416;-70
2023/11/12 11:59:12;;;;;;;9.20;5.73;;;12.10;78.90;;;;;;6152458;23;20410;-70
2023/11/12 12:01:46;;;;;;;9.63;5.80;;;12.10;78.90;;;;;;6152184;23;20416;-70
2023/11/12 12:04:13;;;;;;;9.67;6.70;;;12.20;81.20;;;;;;6151328;23;20409;-70
2023/11/12 12:06:44;;;;;;;11.23;5.10;;;12.60;79.30;;;;;;6151901;23;20469;-70
2023/11/12 12:09:16;;;;;;;9.27;4.90;;;12.60;79.40;;;;;;6151364;23;20469;-70
2023/11/12 12:11:44;;;;;;;9.67;5.60;;;12.60;79.30;;;;;;6151592;23;20858;-70
2023/11/12 12:14:14;;;;;;;10.50;5.67;;;12.30;79.00;;;;;;6152555;23;20413;-70
2023/11/12 12:16:43;;;;;;;10.60;5.37;;;12.20;78.90;;;;;;6153389;23;20851;-70
2023/11/12 12:19:15;;;;;;;11.57;6.83;;;11.90;78.70;;;;;;6152210;23;20488;-70